Time;durP1;ratioP1;P1;durP2;ratioP2;P2;SDS_P1;SDS_P2;PMS_P1;PMS_P2;Temp;Humidity;BMP_temperature;BMP_pressure;BME280_temperature;BME280_humidity;BME280_pressure;Samples;Min_cycle;Max_cycle;Signal;HPM_P1;HPM_P2
2023/07/29 00:01:59;;;;;;;1.83;1.60;;;18.00;99.90;18.10;99917.00;;;;4990881;27;108658;-65
2023/07/29 00:04:25;;;;;;;1.50;1.40;;;18.00;99.90;18.00;99925.00;;;;4988826;27;113112;-65
2023/07/29 00:06:51;;;;;;;2.88;1.83;;;17.90;99.90;17.90;99914.00;;;;4994935;27;111722;-65
2023/07/29 00:09:16;;;;;;;2.33;1.85;;;17.90;99.90;17.90;99907.00;;;;4992402;27;110641;-65
2023/07/29 00:11:42;;;;;;;1.85;1.75;;;17.80;99.90;17.80;99916.00;;;;4990162;27;97306;-65
2023/07/29 00:14:08;;;;;;;2.45;1.48;;;17.80;99.90;17.80;99918.00;;;;4984767;27;111698;-65
2023/07/29 00:16:33;;;;;;;4.32;2.05;;;17.70;99.90;17.70;99913.00;;;;4990636;27;113058;-65
2023/07/29 00:18:59;;;;;;;2.13;2.03;;;17.70;99.90;17.70;99917.00;;;;4989369;27;82699;-64
2023/07/29 00:21:24;;;;;;;2.88;1.98;;;17.60;99.90;17.70;99916.00;;;;4990268;27;108880;-64
2023/07/29 00:23:50;;;;;;;3.15;2.22;;;17.60;99.90;17.60;99919.00;;;;4993454;27;112578;-65
2023/07/29 00:26:16;;;;;;;3.35;1.73;;;17.60;99.90;17.60;99908.00;;;;4986761;27;82750;-65
2023/07/29 00:28:41;;;;;;;3.38;1.85;;;17.50;99.90;17.50;99911.00;;;;4989267;27;82817;-66
2023/07/29 00:31:07;;;;;;;3.90;2.28;;;17.50;99.90;17.50;99913.00;;;;4989804;27;107531;-64
2023/07/29 00:33:33;;;;;;;3.67;1.67;;;17.40;99.90;17.50;99910.00;;;;4990303;27;82801;-63
2023/07/29 00:36:01;;;;;;;1.38;1.25;;;17.40;99.90;17.50;99908.00;;;;4990563;27;110043;-64
2023/07/29 00:38:27;;;;;;;1.75;1.63;;;17.40;99.90;17.50;99911.00;;;;4990486;27;82817;-64
2023/07/29 00:40:53;;;;;;;2.65;1.60;;;17.40;99.90;17.50;99908.00;;;;4993111;27;98823;-65
2023/07/29 00:43:19;;;;;;;1.00;0.93;;;17.40;99.90;17.40;99908.00;;;;4990436;27;96256;-64
2023/07/29 00:45:44;;;;;;;1.67;1.30;;;17.40;99.90;17.40;99915.00;;;;4990216;27;82782;-64
2023/07/29 00:48:10;;;;;;;2.30;1.13;;;17.30;99.90;17.40;99898.00;;;;4988443;28;108366;-64
2023/07/29 00:50:36;;;;;;;1.13;1.08;;;17.30;99.90;17.40;99898.00;;;;4988487;28;83087;-65
2023/07/29 00:53:02;;;;;;;1.40;1.30;;;17.30;99.90;17.40;99898.00;;;;4989711;27;86673;-63
2023/07/29 00:55:28;;;;;;;2.40;1.38;;;17.30;99.90;17.30;99897.00;;;;4992185;28;100577;-66
2023/07/29 00:57:54;;;;;;;1.77;1.27;;;17.30;99.90;17.30;99896.00;;;;4988421;27;109910;-64
2023/07/29 01:00:21;;;;;;;1.77;1.33;;;17.20;99.90;17.30;99902.00;;;;4990921;27;82978;-64
2023/07/29 01:02:47;;;;;;;2.47;1.75;;;17.20;99.90;17.30;99891.00;;;;4991104;27;83946;-64
2023/07/29 01:05:16;;;;;;;3.05;1.85;;;17.20;99.90;17.20;99894.00;;;;4992157;27;84111;-64
2023/07/29 01:08:06;;;;;;;1.85;1.58;;;17.20;99.90;17.20;99894.00;;;;4986050;27;83502;-64
2023/07/29 01:11:08;;;;;;;2.60;2.35;;;17.10;99.90;17.10;99892.00;;;;4987892;27;99554;-64
2023/07/29 01:13:54;;;;;;;2.05;1.80;;;17.10;99.90;17.10;99883.00;;;;4982897;28;83192;-64
2023/07/29 01:16:45;;;;;;;1.92;1.48;;;17.10;99.90;17.10;99882.00;;;;4994121;27;83350;-65
2023/07/29 01:19:57;;;;;;;1.15;1.05;;;17.10;99.90;17.10;99873.00;;;;4989643;27;82589;-64
2023/07/29 01:22:24;;;;;;;1.80;1.10;;;17.00;99.90;17.10;99870.00;;;;4971521;28;82699;-65
2023/07/29 01:24:49;;;;;;;1.15;1.05;;;17.00;99.90;17.10;99867.00;;;;4994394;27;82134;-65
2023/07/29 01:27:15;;;;;;;1.85;1.10;;;17.00;99.90;17.10;99864.00;;;;4997803;27;110041;-65
2023/07/29 01:29:41;;;;;;;2.90;1.50;;;17.40;99.90;17.20;99862.00;;;;4998827;27;110447;-65
2023/07/29 01:32:34;;;;;;;1.77;1.13;;;17.10;99.90;17.10;99868.00;;;;4994522;28;109002;-64
2023/07/29 01:35:06;;;;;;;1.25;1.00;;;17.10;99.90;17.10;99870.00;;;;4991698;27;102185;-65
2023/07/29 01:37:34;;;;;;;0.90;0.90;;;17.10;99.90;17.10;99871.00;;;;4988514;27;83888;-65
2023/07/29 01:40:01;;;;;;;0.95;0.90;;;17.00;99.90;17.10;99866.00;;;;4993590;27;104310;-66
2023/07/29 01:42:27;;;;;;;0.80;0.80;;;17.00;99.90;17.10;99863.00;;;;4992177;27;95727;-65
2023/07/29 01:44:53;;;;;;;0.77;0.77;;;17.00;99.90;17.10;99865.00;;;;4988613;27;107183;-63
2023/07/29 01:47:20;;;;;;;1.23;1.13;;;17.00;99.90;17.00;99869.00;;;;4989349;27;112505;-65
2023/07/29 01:49:46;;;;;;;2.95;1.50;;;17.00;99.90;17.00;99868.00;;;;4988702;27;102649;-65
2023/07/29 01:52:11;;;;;;;1.42;1.10;;;16.90;99.90;17.00;99867.00;;;;4988446;27;106862;-65
2023/07/29 01:54:37;;;;;;;1.67;1.40;;;16.90;99.90;17.00;99865.00;;;;4991323;27;84072;-65
2023/07/29 01:57:03;;;;;;;1.25;1.10;;;16.90;99.90;16.90;99873.00;;;;4987355;27;111669;-65
2023/07/29 01:59:28;;;;;;;1.38;0.88;;;16.90;99.90;16.90;99873.00;;;;4988540;27;96868;-65
2023/07/29 02:01:54;;;;;;;2.85;1.38;;;16.90;99.90;16.90;99866.00;;;;4988456;27;107418;-64
2023/07/29 02:04:20;;;;;;;1.17;0.95;;;16.80;99.90;16.90;99864.00;;;;4989096;27;113536;-64
2023/07/29 02:06:45;;;;;;;1.52;1.33;;;16.90;99.90;16.80;99860.00;;;;4987065;27;83996;-64
2023/07/29 02:09:11;;;;;;;1.20;1.10;;;16.80;99.90;16.80;99859.00;;;;4988078;27;111546;-64
2023/07/29 02:11:37;;;;;;;1.13;1.00;;;16.80;99.90;16.80;99866.00;;;;4993190;27;82598;-64
2023/07/29 02:14:03;;;;;;;1.30;1.08;;;16.70;99.90;16.80;99876.00;;;;4989036;27;112184;-64
2023/07/29 02:16:28;;;;;;;1.42;1.33;;;16.70;99.90;16.80;99866.00;;;;4992125;27;82876;-64
2023/07/29 02:18:54;;;;;;;1.40;1.30;;;16.70;99.90;16.80;99871.00;;;;4987366;27;83434;-64
2023/07/29 02:21:20;;;;;;;1.33;1.17;;;16.80;99.90;16.90;99865.00;;;;4990787;27;84090;-64
2023/07/29 02:23:46;;;;;;;1.27;1.00;;;16.80;99.90;16.90;99876.00;;;;4985137;27;111532;-65
2023/07/29 02:26:11;;;;;;;1.98;1.42;;;16.80;99.90;16.90;99879.00;;;;4990154;27;91465;-64
2023/07/29 02:28:37;;;;;;;1.55;0.98;;;16.80;99.90;16.90;99880.00;;;;4987431;27;109848;-64
2023/07/29 02:31:21;;;;;;;0.90;0.90;;;16.80;99.90;16.90;99879.00;;;;4993262;27;92650;-64
2023/07/29 02:33:47;;;;;;;1.02;0.93;;;16.80;99.90;17.00;99877.00;;;;4988718;27;83309;-64
2023/07/29 02:36:13;;;;;;;1.23;1.13;;;16.90;99.90;17.00;99881.00;;;;4986177;27;112270;-64
2023/07/29 02:38:40;;;;;;;1.52;1.27;;;16.90;99.90;17.00;99882.00;;;;4986927;27;82352;-65
2023/07/29 02:41:06;;;;;;;1.90;1.00;;;16.90;99.90;17.00;99875.00;;;;4991331;27;82702;-63
2023/07/29 02:43:32;;;;;;;1.65;1.50;;;16.90;99.90;17.10;99880.00;;;;4991102;27;84023;-64
2023/07/29 02:45:57;;;;;;;1.38;1.27;;;17.00;99.90;17.10;99887.00;;;;4987614;27;111195;-64
2023/07/29 02:48:23;;;;;;;1.95;0.82;;;17.00;99.90;17.20;99889.00;;;;4986078;28;108473;-64
2023/07/29 02:50:49;;;;;;;1.27;1.13;;;17.00;99.90;17.20;99884.00;;;;4987073;27;83276;-63
2023/07/29 02:53:15;;;;;;;1.23;0.93;;;17.10;99.90;17.30;99889.00;;;;4983999;28;83939;-64
2023/07/29 02:55:41;;;;;;;1.05;1.00;;;17.20;99.90;17.30;99878.00;;;;4987811;28;112617;-64
2023/07/29 02:58:07;;;;;;;1.95;0.70;;;17.20;99.90;17.40;99890.00;;;;4984953;27;110163;-64
2023/07/29 03:00:33;;;;;;;1.40;1.30;;;17.20;99.90;17.40;99892.00;;;;4989801;27;82815;-64
2023/07/29 03:02:59;;;;;;;0.68;0.68;;;17.30;99.90;17.40;99903.00;;;;4986815;27;96986;-64
2023/07/29 03:05:27;;;;;;;1.05;1.00;;;17.30;99.90;17.40;99902.00;;;;4995516;28;112316;-65
2023/07/29 03:07:53;;;;;;;0.77;0.77;;;17.30;99.90;17.50;99896.00;;;;4988780;27;101488;-64
2023/07/29 03:10:19;;;;;;;0.90;0.70;;;17.30;99.90;17.50;99910.00;;;;4987184;27;101946;-65
2023/07/29 03:12:44;;;;;;;2.47;1.30;;;17.40;99.90;17.50;99897.00;;;;4987789;27;111511;-64
2023/07/29 03:15:10;;;;;;;0.85;0.85;;;17.40;99.90;17.60;99905.00;;;;4988920;27;112007;-65
2023/07/29 03:17:36;;;;;;;1.23;1.13;;;17.40;99.90;17.60;99899.00;;;;4986757;27;108974;-65
2023/07/29 03:20:01;;;;;;;0.77;0.77;;;17.50;99.90;17.70;99910.00;;;;4984678;27;108597;-65
2023/07/29 03:22:27;;;;;;;0.95;0.88;;;17.60;99.90;17.80;99905.00;;;;4989088;27;113686;-64
2023/07/29 03:24:52;;;;;;;0.90;0.90;;;17.60;99.90;17.80;99896.00;;;;4987145;27;111451;-66
2023/07/29 03:27:18;;;;;;;1.25;0.82;;;17.70;99.90;17.90;99908.00;;;;4989161;27;108954;-64
2023/07/29 03:29:44;;;;;;;0.82;0.82;;;17.70;99.90;17.90;99896.00;;;;4989425;27;107860;-65
2023/07/29 03:32:11;;;;;;;2.22;1.30;;;17.80;99.90;18.00;99894.00;;;;4992003;27;83137;-64
2023/07/29 03:34:37;;;;;;;1.42;0.98;;;17.80;99.90;18.10;99894.00;;;;4994182;27;95332;-65
2023/07/29 03:37:03;;;;;;;1.13;1.02;;;17.90;99.90;18.10;99894.00;;;;4989698;27;83000;-64
2023/07/29 03:39:28;;;;;;;1.08;0.85;;;18.00;99.90;18.20;99891.00;;;;4992085;27;82923;-65
2023/07/29 03:41:54;;;;;;;6.85;0.93;;;18.00;99.90;18.20;99892.00;;;;4992470;27;110493;-64
2023/07/29 03:44:19;;;;;;;1.13;0.85;;;18.10;99.90;18.30;99894.00;;;;4983669;27;113085;-64
2023/07/29 03:46:45;;;;;;;1.25;0.80;;;18.20;99.90;18.40;99888.00;;;;4986066;27;110126;-65
2023/07/29 03:49:11;;;;;;;1.40;0.88;;;18.30;99.90;18.50;99886.00;;;;4986758;27;108391;-64
2023/07/29 03:51:37;;;;;;;1.02;0.95;;;18.30;99.90;18.60;99878.00;;;;4988058;27;116853;-64
2023/07/29 03:54:02;;;;;;;0.93;0.70;;;18.40;99.90;18.60;99889.00;;;;4987685;27;116771;-65
2023/07/29 03:56:28;;;;;;;0.40;0.40;;;18.50;99.90;18.70;99879.00;;;;4985437;27;109979;-65
2023/07/29 03:59:02;;;;;;;1.05;0.95;;;18.50;99.90;18.80;99883.00;;;;4983490;27;110034;-65
2023/07/29 04:01:28;;;;;;;1.15;0.63;;;18.60;99.90;18.90;99881.00;;;;4985952;27;88751;-64
2023/07/29 04:03:54;;;;;;;0.85;0.63;;;18.70;99.90;19.00;99881.00;;;;4986584;27;117250;-65
2023/07/29 04:06:20;;;;;;;0.95;0.75;;;18.80;99.90;19.10;99878.00;;;;4988764;27;88025;-65
2023/07/29 04:08:46;;;;;;;1.13;0.80;;;18.90;99.90;19.20;99882.00;;;;4985384;27;100299;-64
2023/07/29 04:11:12;;;;;;;0.50;0.50;;;19.00;99.90;19.20;99885.00;;;;4984974;27;115834;-64
2023/07/29 04:13:37;;;;;;;0.90;0.70;;;19.00;99.90;19.30;99881.00;;;;4983256;27;116922;-65
2023/07/29 04:16:04;;;;;;;1.23;0.95;;;19.10;99.90;19.40;99895.00;;;;4988698;27;109763;-64
2023/07/29 04:18:30;;;;;;;0.65;0.60;;;19.20;99.90;19.40;99886.00;;;;4989086;27;109240;-64
2023/07/29 04:20:56;;;;;;;0.52;0.50;;;19.20;99.90;19.50;99881.00;;;;4990474;27;87897;-63
2023/07/29 04:23:21;;;;;;;0.40;0.40;;;19.30;99.90;19.50;99875.00;;;;4988489;27;117226;-64
2023/07/29 04:25:47;;;;;;;0.73;0.73;;;19.40;99.90;19.60;99879.00;;;;4989384;27;110353;-63
2023/07/29 04:28:13;;;;;;;0.50;0.50;;;19.40;99.90;19.60;99873.00;;;;4990052;27;87674;-65
2023/07/29 04:30:38;;;;;;;0.70;0.70;;;19.40;99.90;19.70;99874.00;;;;4989718;28;87709;-64
2023/07/29 04:33:04;;;;;;;0.88;0.50;;;19.50;99.90;19.70;99884.00;;;;4988700;28;88628;-64
2023/07/29 04:35:30;;;;;;;1.70;0.82;;;19.50;99.90;19.70;99888.00;;;;4992899;27;87667;-63
2023/07/29 04:37:55;;;;;;;2.13;0.68;;;19.50;99.90;19.80;99890.00;;;;4987378;27;108310;-65
2023/07/29 04:40:22;;;;;;;1.05;0.73;;;19.60;99.90;19.80;99887.00;;;;4991319;27;117327;-64
2023/07/29 04:42:48;;;;;;;0.88;0.60;;;19.70;99.90;19.90;99893.00;;;;4990216;27;88055;-64
2023/07/29 04:45:14;;;;;;;0.88;0.82;;;19.70;99.90;19.90;99894.00;;;;4987301;27;100063;-64
2023/07/29 04:47:40;;;;;;;1.00;0.43;;;19.70;99.90;19.90;99881.00;;;;4987759;27;90053;-64
2023/07/29 04:50:06;;;;;;;0.95;0.82;;;19.80;99.90;20.00;99886.00;;;;4988150;27;118001;-64
2023/07/29 04:52:32;;;;;;;0.52;0.52;;;19.80;99.90;20.00;99889.00;;;;4981786;28;105584;-64
2023/07/29 04:54:58;;;;;;;1.55;0.45;;;19.80;99.90;20.00;99880.00;;;;4986250;27;109507;-64
2023/07/29 04:57:23;;;;;;;0.82;0.82;;;19.90;99.90;20.00;99878.00;;;;4986164;27;106311;-64
2023/07/29 04:59:49;;;;;;;0.45;0.45;;;19.90;99.90;20.10;99884.00;;;;4983607;27;88682;-65
2023/07/29 05:02:15;;;;;;;1.92;1.13;;;19.90;99.90;20.10;99882.00;;;;4982906;27;117560;-64
2023/07/29 05:04:41;;;;;;;0.80;0.80;;;19.90;99.90;20.10;99879.00;;;;4984504;27;87179;-65
2023/07/29 05:07:06;;;;;;;0.75;0.68;;;19.90;99.90;20.10;99871.00;;;;4984287;27;94172;-64
2023/07/29 05:09:32;;;;;;;1.77;0.60;;;20.00;99.90;20.10;99873.00;;;;4979712;27;109583;-64
2023/07/29 05:11:58;;;;;;;1.75;0.80;;;20.00;99.90;20.10;99876.00;;;;4983020;27;117496;-64
2023/07/29 05:14:23;;;;;;;0.73;0.60;;;20.00;99.90;20.10;99872.00;;;;4979360;27;110276;-65
2023/07/29 05:16:49;;;;;;;0.50;0.50;;;20.00;99.90;20.10;99876.00;;;;4980481;28;87921;-64
2023/07/29 05:19:15;;;;;;;0.30;0.30;;;20.00;99.90;20.20;99879.00;;;;4982821;28;88469;-64
2023/07/29 05:21:40;;;;;;;0.40;0.40;;;20.00;99.90;20.20;99883.00;;;;4990291;27;117034;-64
2023/07/29 05:24:06;;;;;;;1.65;0.60;;;20.00;99.90;20.20;99874.00;;;;4980555;27;87825;-62
2023/07/29 05:26:32;;;;;;;0.50;0.50;;;20.00;99.90;20.20;99873.00;;;;4989043;27;88809;-63
2023/07/29 05:28:58;;;;;;;0.63;0.50;;;20.10;99.90;20.30;99882.00;;;;4977632;27;88688;-65
2023/07/29 05:31:24;;;;;;;0.40;0.40;;;20.10;99.90;20.40;99876.00;;;;4983071;27;113070;-65
2023/07/29 05:33:49;;;;;;;0.40;0.38;;;20.20;99.90;20.50;99877.00;;;;4983767;27;109925;-65
2023/07/29 05:36:15;;;;;;;0.77;0.30;;;20.30;99.90;20.70;99875.00;;;;4983097;27;109307;-65
2023/07/29 05:38:41;;;;;;;0.45;0.43;;;20.40;99.90;20.90;99872.00;;;;4983109;27;117854;-64
2023/07/29 05:41:07;;;;;;;0.65;0.43;;;20.60;99.90;21.10;99866.00;;;;4982532;27;88791;-64
2023/07/29 05:43:32;;;;;;;0.63;0.30;;;20.80;99.90;21.30;99876.00;;;;4978663;27;111286;-64
2023/07/29 05:45:58;;;;;;;0.88;0.47;;;21.10;99.90;21.60;99872.00;;;;4982993;27;109123;-64
2023/07/29 05:48:24;;;;;;;0.30;0.30;;;21.30;99.90;21.90;99868.00;;;;4981208;27;117830;-65
2023/07/29 05:50:50;;;;;;;0.40;0.40;;;21.50;99.90;22.00;99871.00;;;;4981139;27;117535;-66
2023/07/29 05:53:16;;;;;;;0.22;0.22;;;21.80;99.90;22.20;99869.00;;;;4984940;27;87197;-66
2023/07/29 05:55:41;;;;;;;0.70;0.70;;;21.90;99.90;22.30;99862.00;;;;4979718;27;107655;-65
2023/07/29 05:58:07;;;;;;;0.82;0.52;;;22.00;99.90;22.40;99866.00;;;;4980819;27;117824;-65
2023/07/29 06:00:32;;;;;;;0.85;0.63;;;22.10;99.90;22.50;99862.00;;;;4979212;27;88949;-64
2023/07/29 06:02:58;;;;;;;0.90;0.45;;;22.30;99.90;22.50;99857.00;;;;4978625;27;110161;-64
2023/07/29 06:05:24;;;;;;;0.50;0.47;;;22.30;99.90;22.60;99866.00;;;;4979049;27;110608;-64
2023/07/29 06:07:50;;;;;;;0.30;0.30;;;22.40;99.90;22.70;99864.00;;;;4980014;27;119469;-64
2023/07/29 06:10:18;;;;;;;0.95;0.55;;;22.50;99.90;22.70;99850.00;;;;4981917;27;115625;-64
2023/07/29 06:12:45;;;;;;;0.68;0.68;;;22.50;99.90;22.70;99842.00;;;;4988623;27;88260;-64
2023/07/29 06:15:11;;;;;;;0.47;0.47;;;22.50;99.90;22.80;99841.00;;;;4986240;27;88195;-64
2023/07/29 06:17:40;;;;;;;0.65;0.65;;;22.90;99.90;22.90;99841.00;;;;4985544;27;87734;-63
2023/07/29 06:20:07;;;;;;;0.43;0.40;;;22.70;99.90;23.00;99836.00;;;;4980730;27;104415;-66
2023/07/29 06:22:32;;;;;;;0.77;0.45;;;22.80;99.90;23.20;99839.00;;;;4985096;27;87928;-63
2023/07/29 06:24:58;;;;;;;0.40;0.40;;;22.90;99.90;23.30;99838.00;;;;4980258;27;105178;-67
2023/07/29 06:27:25;;;;;;;0.32;0.30;;;23.10;99.90;23.50;99846.00;;;;4981547;27;116674;-63
2023/07/29 06:29:51;;;;;;;0.57;0.57;;;23.20;99.90;23.50;99851.00;;;;4982435;27;89246;-63
2023/07/29 06:32:16;;;;;;;0.45;0.43;;;23.30;99.90;23.60;99855.00;;;;4976126;27;110465;-64
2023/07/29 06:34:42;;;;;;;0.20;0.20;;;23.40;99.90;23.80;99850.00;;;;4981018;27;109880;-64
2023/07/29 06:37:07;;;;;;;0.30;0.30;;;23.50;99.90;23.90;99847.00;;;;4965389;27;88465;-63
2023/07/29 06:39:33;;;;;;;0.28;0.28;;;23.70;99.90;24.10;99862.00;;;;4979646;27;117272;-64
2023/07/29 06:41:59;;;;;;;0.95;0.30;;;23.80;99.90;24.20;99856.00;;;;4979327;27;110774;-65
2023/07/29 06:44:24;;;;;;;0.35;0.35;;;24.00;99.90;24.30;99860.00;;;;4977159;27;89909;-64
2023/07/29 06:46:50;;;;;;;0.82;0.32;;;24.00;99.90;24.40;99855.00;;;;4982685;27;88940;-65
2023/07/29 06:49:16;;;;;;;0.30;0.30;;;24.10;99.90;24.50;99864.00;;;;4983267;27;115809;-65
2023/07/29 06:51:41;;;;;;;0.20;0.20;;;24.30;99.90;24.60;99856.00;;;;4979819;27;110107;-64
2023/07/29 06:54:07;;;;;;;0.90;0.57;;;24.30;99.90;24.60;99867.00;;;;4978495;27;99906;-64
2023/07/29 06:56:33;;;;;;;0.20;0.20;;;24.40;99.90;24.70;99863.00;;;;4979297;27;118894;-65
2023/07/29 06:58:58;;;;;;;0.60;0.60;;;24.40;99.90;24.70;99863.00;;;;4982813;28;117922;-64
2023/07/29 07:01:24;;;;;;;0.43;0.40;;;24.50;99.90;24.70;99869.00;;;;4982756;27;88056;-64
2023/07/29 07:03:50;;;;;;;0.45;0.45;;;24.50;99.90;24.70;99872.00;;;;4978404;27;108463;-64
2023/07/29 07:06:15;;;;;;;1.33;0.60;;;24.50;99.90;24.70;99873.00;;;;4983625;27;88301;-65
2023/07/29 07:08:41;;;;;;;0.20;0.20;;;24.60;99.90;24.70;99863.00;;;;4977766;28;116129;-64
2023/07/29 07:11:07;;;;;;;0.47;0.32;;;24.50;99.80;24.60;99877.00;;;;4981426;27;88002;-66
2023/07/29 07:13:33;;;;;;;0.90;0.75;;;24.40;99.30;24.50;99876.00;;;;4980951;27;109498;-64
2023/07/29 07:15:59;;;;;;;1.50;0.57;;;24.30;99.50;24.40;99870.00;;;;4981170;27;88837;-65
2023/07/29 07:18:25;;;;;;;0.30;0.30;;;24.20;99.20;24.30;99870.00;;;;4979784;27;117364;-65
2023/07/29 07:20:51;;;;;;;1.35;0.32;;;24.10;99.40;24.30;99871.00;;;;4990290;27;88018;-64
2023/07/29 07:23:18;;;;;;;0.50;0.40;;;24.10;99.50;24.30;99873.00;;;;4979605;27;88132;-64
2023/07/29 07:25:44;;;;;;;0.35;0.30;;;24.10;99.70;24.40;99870.00;;;;4978442;27;88920;-64
2023/07/29 07:28:10;;;;;;;0.40;0.40;;;24.10;99.30;24.30;99872.00;;;;4979820;27;118271;-64
2023/07/29 07:30:41;;;;;;;0.75;0.43;;;24.10;99.20;24.30;99867.00;;;;4988683;27;99479;-64
2023/07/29 07:33:06;;;;;;;0.73;0.50;;;24.10;99.20;24.40;99868.00;;;;4984675;27;87939;-64
2023/07/29 07:35:32;;;;;;;1.63;0.55;;;24.10;99.10;24.40;99858.00;;;;4979364;27;119012;-63
2023/07/29 07:37:59;;;;;;;1.38;0.38;;;24.20;99.20;24.50;99862.00;;;;4978930;27;116496;-65
2023/07/29 07:40:25;;;;;;;0.38;0.38;;;24.20;99.00;24.60;99856.00;;;;4981030;27;87851;-63
2023/07/29 07:42:50;;;;;;;0.38;0.38;;;24.30;98.70;24.60;99862.00;;;;4986278;27;87795;-66
2023/07/29 07:45:17;;;;;;;0.52;0.52;;;24.30;98.10;24.60;99853.00;;;;4982803;27;88473;-65
2023/07/29 07:47:43;;;;;;;0.60;0.60;;;24.40;98.20;24.70;99860.00;;;;4980704;27;88106;-64
2023/07/29 07:50:09;;;;;;;0.10;0.10;;;24.40;98.00;24.70;99843.00;;;;4981902;27;111368;-65
2023/07/29 07:52:35;;;;;;;0.52;0.25;;;24.40;98.00;24.80;99831.00;;;;4980056;27;88196;-65
2023/07/29 07:55:01;;;;;;;0.50;0.50;;;24.50;97.90;24.90;99835.00;;;;4986156;27;115845;-65
2023/07/29 07:57:27;;;;;;;0.68;0.45;;;24.60;98.00;25.00;99824.00;;;;4984897;27;99762;-65
2023/07/29 07:59:52;;;;;;;0.43;0.43;;;24.70;97.90;25.10;99817.00;;;;4977833;27;110539;-65
2023/07/29 08:02:18;;;;;;;0.20;0.20;;;24.80;97.80;25.30;99820.00;;;;4978750;27;109235;-65
2023/07/29 08:04:44;;;;;;;0.65;0.40;;;25.00;97.10;25.30;99808.00;;;;4979674;27;87955;-65
2023/07/29 08:07:10;;;;;;;0.60;0.30;;;25.10;96.50;25.40;99804.00;;;;4975375;27;117959;-65
2023/07/29 08:09:35;;;;;;;0.10;0.10;;;25.20;96.40;25.60;99797.00;;;;4976352;27;87863;-65
2023/07/29 08:12:01;;;;;;;0.65;0.60;;;25.30;96.10;25.80;99806.00;;;;4978711;27;108147;-65
2023/07/29 08:14:27;;;;;;;0.60;0.43;;;25.50;95.20;25.90;99802.00;;;;4978585;27;117777;-65
2023/07/29 08:16:52;;;;;;;0.20;0.20;;;25.60;94.90;26.00;99794.00;;;;4976587;27;117688;-65
2023/07/29 08:19:18;;;;;;;0.77;0.30;;;25.70;94.60;26.20;99805.00;;;;4981173;27;111181;-65
2023/07/29 08:21:44;;;;;;;1.27;0.47;;;25.90;94.10;26.40;99795.00;;;;4982800;27;109046;-64
2023/07/29 08:24:09;;;;;;;0.60;0.60;;;26.10;93.50;26.50;99794.00;;;;4983121;27;88572;-64
2023/07/29 08:26:35;;;;;;;0.40;0.30;;;26.20;93.00;26.60;99794.00;;;;4983366;27;118396;-65
2023/07/29 08:29:01;;;;;;;0.68;0.40;;;26.40;91.70;26.70;99790.00;;;;4978811;27;110509;-64
2023/07/29 08:31:27;;;;;;;0.63;0.40;;;26.50;91.50;26.80;99789.00;;;;4982775;27;108630;-64
2023/07/29 08:33:52;;;;;;;0.30;0.30;;;26.50;90.80;26.80;99790.00;;;;4984683;27;117904;-64
2023/07/29 08:36:18;;;;;;;1.00;0.52;;;26.60;91.00;26.90;99782.00;;;;4983910;27;117328;-65
2023/07/29 08:38:44;;;;;;;0.60;0.32;;;26.60;90.20;26.90;99785.00;;;;4984937;27;109124;-65
2023/07/29 08:41:17;;;;;;;0.25;0.22;;;26.70;90.70;27.10;99779.00;;;;4981683;27;108834;-65
2023/07/29 08:44:26;;;;;;;0.50;0.50;;;26.80;90.60;27.10;99788.00;;;;4981842;27;88249;-65
2023/07/29 08:46:53;;;;;;;0.30;0.30;;;26.90;90.40;27.20;99794.00;;;;4977354;27;87654;-64
2023/07/29 08:49:20;;;;;;;0.65;0.45;;;26.90;88.70;27.10;99790.00;;;;4981984;27;88193;-64
2023/07/29 08:51:50;;;;;;;0.47;0.47;;;26.90;87.10;27.00;99795.00;;;;4984449;27;89220;-65
2023/07/29 08:54:16;;;;;;;1.23;0.50;;;26.80;86.70;26.90;99795.00;;;;4982371;27;88038;-65
2023/07/29 08:56:43;;;;;;;0.30;0.30;;;26.70;86.10;26.90;99798.00;;;;4983667;27;87974;-65
2023/07/29 08:59:10;;;;;;;0.70;0.50;;;26.70;87.00;27.00;99800.00;;;;4984454;27;87686;-65
2023/07/29 09:01:40;;;;;;;0.20;0.20;;;26.70;86.70;27.10;99799.00;;;;4981746;27;88037;-65
2023/07/29 09:04:06;;;;;;;0.43;0.43;;;26.80;86.00;27.10;99797.00;;;;4981157;27;102104;-65
2023/07/29 09:06:32;;;;;;;0.65;0.43;;;26.90;85.80;27.10;99801.00;;;;4986358;27;117288;-66
2023/07/29 09:08:58;;;;;;;0.10;0.10;;;26.80;84.60;27.00;99807.00;;;;4978771;27;102154;-65
2023/07/29 09:11:25;;;;;;;0.38;0.30;;;26.80;83.50;26.90;99799.00;;;;4987536;27;88312;-65
2023/07/29 09:13:51;;;;;;;0.30;0.30;;;26.70;83.60;26.80;99813.00;;;;4983951;27;98770;-65
2023/07/29 09:16:16;;;;;;;0.10;0.10;;;26.60;82.80;26.80;99805.00;;;;4979166;27;88965;-64
2023/07/29 09:18:42;;;;;;;0.77;0.38;;;26.60;83.20;26.90;99802.00;;;;4987112;27;110378;-65
2023/07/29 09:21:08;;;;;;;0.30;0.30;;;26.60;83.00;27.00;99802.00;;;;4987933;27;108098;-65
2023/07/29 09:23:41;;;;;;;0.85;0.20;;;26.70;81.70;26.90;99800.00;;;;4979555;27;89143;-66
2023/07/29 09:26:07;;;;;;;0.50;0.40;;;26.70;78.20;26.90;99789.00;;;;4984592;27;88131;-65
2023/07/29 09:28:36;;;;;;;0.68;0.50;;;26.70;77.30;26.90;99794.00;;;;4985824;27;87944;-65
2023/07/29 09:31:02;;;;;;;0.38;0.35;;;26.70;77.80;27.00;99788.00;;;;4983880;27;87940;-65
2023/07/29 09:33:37;;;;;;;0.10;0.10;;;26.70;77.00;27.00;99787.00;;;;4987656;27;117529;-65
2023/07/29 09:36:09;;;;;;;0.98;0.20;;;26.70;76.90;27.10;99793.00;;;;4982335;27;87936;-64
2023/07/29 09:38:36;;;;;;;0.30;0.15;;;26.70;76.10;27.10;99794.00;;;;4981513;27;88111;-65
2023/07/29 09:41:02;;;;;;;0.10;0.10;;;26.80;76.10;27.10;99794.00;;;;4989433;27;89127;-65
2023/07/29 09:43:33;;;;;;;0.40;0.32;;;26.80;75.70;27.10;99793.00;;;;4989337;27;88898;-65
2023/07/29 09:46:04;;;;;;;0.30;0.30;;;26.90;75.50;27.20;99803.00;;;;4987040;27;107943;-64
2023/07/29 09:48:35;;;;;;;0.30;0.20;;;26.90;76.00;27.20;99797.00;;;;4988337;27;91395;-64
2023/07/29 09:51:11;;;;;;;0.30;0.30;;;26.90;74.90;27.30;99788.00;;;;4981342;27;88910;-64
2023/07/29 09:53:46;;;;;;;2.70;0.47;;;27.00;75.30;27.40;99782.00;;;;4976924;27;89193;-65
2023/07/29 09:56:13;;;;;;;0.50;0.50;;;27.00;75.50;27.50;99781.00;;;;4983990;27;87774;-68
2023/07/29 09:58:39;;;;;;;0.57;0.57;;;27.20;75.00;27.70;99773.00;;;;4986248;27;89859;-66
2023/07/29 10:01:09;;;;;;;0.30;0.30;;;27.30;73.60;27.80;99778.00;;;;4981448;27;89253;-67
2023/07/29 10:03:36;;;;;;;1.60;0.45;;;27.40;73.50;27.90;99772.00;;;;4982739;27;88399;-66
2023/07/29 10:06:04;;;;;;;0.63;0.30;;;27.50;72.40;27.90;99766.00;;;;4980302;27;100214;-67
2023/07/29 10:08:40;;;;;;;0.20;0.20;;;27.60;72.80;27.90;99779.00;;;;4980602;27;87885;-67
2023/07/29 10:11:11;;;;;;;0.82;0.47;;;27.60;71.70;27.90;99778.00;;;;4985055;28;87828;-67
2023/07/29 10:13:38;;;;;;;0.38;0.38;;;27.60;72.20;27.90;99783.00;;;;4979908;27;110353;-67
2023/07/29 10:16:05;;;;;;;0.28;0.28;;;27.60;72.80;27.90;99781.00;;;;4982447;27;87945;-67
2023/07/29 10:18:32;;;;;;;0.28;0.28;;;27.60;73.40;27.90;99793.00;;;;4978717;27;88038;-66
2023/07/29 10:21:00;;;;;;;0.60;0.28;;;27.60;72.30;27.90;99785.00;;;;4979557;27;101780;-67
2023/07/29 10:23:28;;;;;;;0.38;0.25;;;27.60;72.40;27.90;99779.00;;;;4987972;27;88156;-67
2023/07/29 10:26:03;;;;;;;0.70;0.70;;;27.60;72.60;27.90;99782.00;;;;4984931;27;95594;-67
2023/07/29 10:28:31;;;;;;;0.40;0.30;;;27.60;72.60;28.00;99779.00;;;;4978391;27;89224;-68
2023/07/29 10:30:58;;;;;;;0.82;0.40;;;27.60;72.70;28.20;99779.00;;;;4979060;27;91004;-66
2023/07/29 10:33:25;;;;;;;0.35;0.32;;;27.80;73.10;28.40;99772.00;;;;4990592;27;88979;-67
2023/07/29 10:35:53;;;;;;;0.60;0.40;;;27.90;72.30;28.50;99770.00;;;;4981875;27;109846;-67
2023/07/29 10:38:21;;;;;;;0.25;0.20;;;28.10;71.50;28.60;99766.00;;;;4978902;27;98660;-66
2023/07/29 10:40:52;;;;;;;0.22;0.22;;;28.20;71.00;28.60;99767.00;;;;4979795;27;90800;-67
2023/07/29 10:43:37;;;;;;;0.57;0.47;;;28.20;70.70;28.50;99779.00;;;;4980128;27;87792;-67
2023/07/29 10:46:24;;;;;;;0.17;0.13;;;28.20;70.80;28.40;99763.00;;;;4982575;27;88151;-67
2023/07/29 10:48:56;;;;;;;1.23;0.40;;;28.10;69.90;28.30;99757.00;;;;4984243;27;87177;-67
2023/07/29 10:51:35;;;;;;;0.52;0.40;;;28.00;69.40;28.20;99753.00;;;;4985455;27;87965;-67